createdAt,value
2019-04-06T00:03:55.707Z,100.00
2019-04-06T00:06:26.720Z,100.00
2019-04-06T00:08:57.715Z,100.00
2019-04-06T00:11:28.554Z,100.00
2019-04-06T00:13:59.395Z,100.00
2019-04-06T00:16:30.194Z,100.00
2019-04-06T00:19:00.914Z,100.00
2019-04-06T00:21:31.679Z,100.00
2019-04-06T00:24:02.819Z,100.00
2019-04-06T00:26:33.781Z,100.00
2019-04-06T00:29:04.775Z,100.00
2019-04-06T00:31:51.068Z,100.00
2019-04-06T00:34:22.096Z,100.00
2019-04-06T00:36:53.315Z,100.00
2019-04-06T00:39:24.430Z,100.00
2019-04-06T00:41:55.539Z,100.00
2019-04-06T00:44:26.324Z,100.00
2019-04-06T00:46:57.139Z,100.00
2019-04-06T00:49:27.142Z,100.00
2019-04-06T00:51:57.999Z,100.00
2019-04-06T00:54:28.785Z,100.00
2019-04-06T00:56:59.667Z,100.00
2019-04-06T00:59:30.575Z,100.00
2019-04-06T01:02:01.317Z,100.00
2019-04-06T01:07:23.159Z,100.00
2019-04-06T01:09:54.747Z,100.00
2019-04-06T01:12:26.026Z,100.00
2019-04-06T01:14:56.799Z,100.00
2019-04-06T01:17:27.946Z,100.00
2019-04-06T01:19:59.052Z,100.00
2019-04-06T01:22:30.307Z,100.00
2019-04-06T01:25:01.112Z,100.00
2019-04-06T01:27:31.880Z,100.00
2019-04-06T01:30:02.759Z,100.00
2019-04-06T01:32:33.998Z,100.00
2019-04-06T01:35:04.967Z,100.00
2019-04-06T01:37:35.783Z,100.00
2019-04-06T01:40:07.534Z,100.00
2019-04-06T01:42:38.558Z,100.00
2019-04-06T01:45:09.781Z,100.00
2019-04-06T01:47:40.638Z,100.00
2019-04-06T01:50:11.584Z,100.00
2019-04-06T01:52:42.429Z,100.00
2019-04-06T01:55:13.519Z,100.00
2019-04-06T01:57:44.309Z,100.00
2019-04-06T02:00:15.863Z,100.00
2019-04-06T02:02:49.250Z,100.00
2019-04-06T02:05:20.584Z,100.00
2019-04-06T02:07:51.445Z,100.00
2019-04-06T02:10:22.326Z,100.00
2019-04-06T02:12:53.342Z,100.00
2019-04-06T02:15:24.414Z,100.00
2019-04-06T02:17:55.279Z,100.00
2019-04-06T02:20:26.301Z,100.00
2019-04-06T02:22:57.088Z,100.00
2019-04-06T02:25:27.865Z,100.00
2019-04-06T02:27:58.652Z,100.00
2019-04-06T02:30:33.084Z,100.00
2019-04-06T02:33:21.773Z,100.00
2019-04-06T02:36:18.106Z,100.00
2019-04-06T02:39:00.061Z,100.00
2019-04-06T02:42:02.147Z,100.00
2019-04-06T02:44:34.409Z,100.00
2019-04-06T02:47:05.641Z,100.00
2019-04-06T02:49:36.903Z,100.00
2019-04-06T02:52:07.997Z,100.00
2019-04-06T02:54:39.122Z,100.00
2019-04-06T02:57:09.936Z,100.00
2019-04-06T02:59:40.712Z,100.00
2019-04-06T03:02:11.549Z,100.00
2019-04-06T03:04:43.394Z,100.00
2019-04-06T03:07:15.785Z,100.00
2019-04-06T03:09:46.865Z,100.00
2019-04-06T03:12:17.745Z,100.00
2019-04-06T03:14:49.096Z,100.00
2019-04-06T03:17:19.857Z,100.00
2019-04-06T03:19:51.109Z,100.00
2019-04-06T03:22:22.162Z,100.00
2019-04-06T03:24:52.930Z,100.00
2019-04-06T03:27:24.167Z,100.00
2019-04-06T03:29:58.499Z,100.00
2019-04-06T03:32:28.021Z,100.00
2019-04-06T03:34:59.053Z,100.00
2019-04-06T03:37:29.918Z,100.00
2019-04-06T03:40:01.410Z,100.00
2019-04-06T03:42:32.233Z,100.00
2019-04-06T03:45:02.992Z,100.00
2019-04-06T03:47:34.045Z,100.00
2019-04-06T03:50:05.262Z,100.00
2019-04-06T03:52:37.123Z,100.00
2019-04-06T03:55:08.403Z,100.00
2019-04-06T03:57:39.718Z,100.00
2019-04-06T04:00:10.988Z,100.00
2019-04-06T04:02:42.177Z,100.00
2019-04-06T04:05:13.025Z,100.00
2019-04-06T04:07:44.045Z,100.00
2019-04-06T04:10:29.113Z,100.00
2019-04-06T04:13:00.098Z,100.00
2019-04-06T04:15:31.181Z,100.00
2019-04-06T04:18:02.099Z,100.00
2019-04-06T04:20:33.086Z,100.00
2019-04-06T04:23:04.504Z,100.00
2019-04-06T04:25:35.828Z,100.00
2019-04-06T04:28:06.729Z,100.00
2019-04-06T04:30:37.824Z,100.00
2019-04-06T04:33:09.163Z,100.00
2019-04-06T04:35:41.112Z,100.00
2019-04-06T04:38:13.425Z,100.00
2019-04-06T04:40:44.364Z,100.00
2019-04-06T04:43:15.172Z,100.00
2019-04-06T04:45:45.954Z,100.00
2019-04-06T04:48:17.156Z,100.00
2019-04-06T04:50:47.986Z,100.00
2019-04-06T04:53:19.011Z,100.00
2019-04-06T04:55:50.087Z,100.00
2019-04-06T04:58:21.125Z,100.00
2019-04-06T05:00:52.004Z,100.00
2019-04-06T05:03:22.773Z,100.00
2019-04-06T05:05:53.555Z,100.00
2019-04-06T05:08:24.343Z,100.00
2019-04-06T05:10:55.594Z,100.00
2019-04-06T05:13:26.458Z,100.00
2019-04-06T05:16:22.654Z,100.00
2019-04-06T05:18:53.763Z,100.00
2019-04-06T05:21:24.785Z,100.00
2019-04-06T05:23:55.570Z,100.00
2019-04-06T05:26:36.803Z,100.00
2019-04-06T05:28:59.072Z,100.00
2019-04-06T05:31:29.856Z,100.00
2019-04-06T05:34:00.881Z,100.00
2019-04-06T05:36:31.658Z,100.00
2019-04-06T05:39:02.859Z,100.00
2019-04-06T05:41:33.617Z,100.00
2019-04-06T05:44:04.693Z,100.00
2019-04-06T05:46:35.472Z,100.00
2019-04-06T05:49:06.474Z,100.00
2019-04-06T05:51:37.409Z,100.00
2019-04-06T05:54:08.199Z,100.00
2019-04-06T05:56:39.272Z,100.00
2019-04-06T05:59:10.921Z,100.00
2019-04-06T06:01:41.647Z,100.00
2019-04-06T06:04:13.868Z,100.00
2019-04-06T06:06:44.591Z,100.00
2019-04-06T06:09:15.658Z,100.00
2019-04-06T06:11:46.715Z,100.00
2019-04-06T06:14:17.935Z,100.00
2019-04-06T06:16:48.948Z,100.00
2019-04-06T06:19:20.208Z,100.00
2019-04-06T06:21:51.530Z,100.00
2019-04-06T06:24:22.389Z,100.00
2019-04-06T06:26:53.634Z,100.00
2019-04-06T06:29:24.642Z,100.00
2019-04-06T06:31:55.438Z,100.00
2019-04-06T06:34:26.703Z,100.00
2019-04-06T06:36:57.764Z,100.00
2019-04-06T06:39:28.607Z,100.00
2019-04-06T06:41:59.947Z,100.00
2019-04-06T06:44:30.808Z,100.00
2019-04-06T06:47:02.077Z,99.77
2019-04-06T06:49:33.131Z,100.00
2019-04-06T06:52:03.960Z,99.15
2019-04-06T06:54:34.747Z,97.96
2019-04-06T06:57:05.919Z,98.42
2019-04-06T06:59:36.694Z,96.61
2019-04-06T07:02:07.537Z,97.57
2019-04-06T07:04:39.240Z,98.11
2019-04-06T07:07:29.583Z,96.56
2019-04-06T07:10:25.556Z,96.12
2019-04-06T07:13:21.775Z,94.28
2019-04-06T07:16:17.885Z,92.59
2019-04-06T07:18:49.226Z,91.00
2019-04-06T07:21:20.520Z,90.83
2019-04-06T07:23:51.867Z,90.70
2019-04-06T07:26:22.960Z,88.67
2019-04-06T07:28:53.743Z,87.39
2019-04-06T07:31:24.867Z,89.32
2019-04-06T07:33:56.136Z,89.25
2019-04-06T07:36:27.389Z,88.24
2019-04-06T07:38:58.328Z,88.42
2019-04-06T07:41:29.159Z,89.77
2019-04-06T07:44:01.410Z,88.98
2019-04-06T07:46:32.269Z,88.80
2019-04-06T07:49:08.831Z,88.80
2019-04-06T07:51:35.821Z,89.59
2019-04-06T07:54:06.617Z,89.26
2019-04-06T07:56:37.477Z,87.25
2019-04-06T07:59:08.788Z,85.48
2019-04-06T08:01:40.389Z,86.12
2019-04-06T08:04:11.448Z,84.55
2019-04-06T08:06:42.737Z,82.22
2019-04-06T08:09:14.506Z,81.59
2019-04-06T08:11:45.615Z,81.97
2019-04-06T08:14:16.645Z,79.82
2019-04-06T08:16:47.743Z,81.77
2019-04-06T08:19:18.520Z,78.56
2019-04-06T08:21:49.869Z,85.21
2019-04-06T08:24:20.991Z,87.80
2019-04-06T08:26:51.784Z,87.80
2019-04-06T08:29:22.906Z,89.00
2019-04-06T08:31:53.937Z,88.33
2019-04-06T08:34:25.044Z,86.89
2019-04-06T08:36:55.998Z,88.46
2019-04-06T08:39:26.861Z,86.40
2019-04-06T08:41:57.946Z,84.41
2019-04-06T08:44:29.001Z,80.44
2019-04-06T08:47:19.117Z,76.38
2019-04-06T08:49:49.904Z,73.33
2019-04-06T08:52:20.798Z,74.31
2019-04-06T08:55:12.757Z,77.87
2019-04-06T08:57:43.690Z,84.65
2019-04-06T09:00:14.731Z,84.58
2019-04-06T09:02:45.628Z,84.30
2019-04-06T09:05:16.843Z,83.16
2019-04-06T09:07:47.798Z,81.12
2019-04-06T09:10:19.041Z,83.21
2019-04-06T09:12:49.903Z,84.65
2019-04-06T09:15:20.686Z,82.79
2019-04-06T09:17:51.795Z,85.07
2019-04-06T09:20:22.781Z,84.50
2019-04-06T09:22:54.299Z,82.16
2019-04-06T09:25:25.086Z,82.63
2019-04-06T09:27:56.225Z,84.01
2019-04-06T09:30:28.694Z,83.32
2019-04-06T09:32:59.491Z,83.53
2019-04-06T09:35:30.895Z,79.33
2019-04-06T09:38:03.708Z,68.70
2019-04-06T09:40:34.818Z,72.98
2019-04-06T09:43:05.695Z,71.52
2019-04-06T09:45:53.048Z,69.35
2019-04-06T09:48:31.615Z,68.53
2019-04-06T09:51:21.653Z,66.57
2019-04-06T09:54:14.843Z,66.24
2019-04-06T09:56:55.920Z,67.03
2019-04-06T09:59:48.514Z,67.22
2019-04-06T10:02:28.390Z,65.74
2019-04-06T10:05:14.474Z,67.73
2019-04-06T10:07:55.084Z,64.20
2019-04-06T10:10:35.165Z,64.32
2019-04-06T10:13:44.483Z,65.83
2019-04-06T10:16:41.878Z,65.72
2019-04-06T10:19:21.462Z,62.78
2019-04-06T10:22:15.352Z,65.96
2019-04-06T10:25:00.971Z,63.63
2019-04-06T10:27:51.005Z,63.70
2019-04-06T10:30:35.869Z,62.97
2019-04-06T10:33:24.193Z,62.77
2019-04-06T10:36:06.690Z,61.80
2019-04-06T10:38:56.710Z,61.91
2019-04-06T10:41:45.242Z,61.81
2019-04-06T10:44:44.395Z,61.56
2019-04-06T10:47:21.087Z,61.48
2019-04-06T10:53:39.699Z,61.37
2019-04-06T10:56:21.702Z,61.35
2019-04-06T10:59:16.247Z,62.12
2019-04-06T11:02:00.753Z,62.96
2019-04-06T11:04:36.308Z,58.30
2019-04-06T11:07:26.317Z,57.03
2019-04-06T11:10:16.701Z,59.76
2019-04-06T11:12:56.585Z,58.76
2019-04-06T11:15:43.460Z,61.42
2019-04-06T11:18:33.232Z,58.60
2019-04-06T11:21:26.067Z,56.93
2019-04-06T11:24:24.331Z,56.73
2019-04-06T11:27:17.368Z,59.26
2019-04-06T11:30:12.842Z,57.59
2019-04-06T11:32:58.092Z,59.13
2019-04-06T11:35:47.925Z,58.18
2019-04-06T11:38:49.643Z,59.08
2019-04-06T11:41:38.163Z,57.02
2019-04-06T11:44:33.977Z,56.19
2019-04-06T11:47:23.119Z,58.84
2019-04-06T11:50:30.859Z,57.25
2019-04-06T11:53:19.537Z,55.27
2019-04-06T11:55:59.235Z,56.94
2019-04-06T11:58:55.141Z,56.70
2019-04-06T12:01:51.480Z,57.52
2019-04-06T12:04:44.204Z,56.30
2019-04-06T12:07:25.189Z,56.06
2019-04-06T12:10:10.627Z,54.96
2019-04-06T12:13:03.719Z,55.63
2019-04-06T12:15:52.602Z,57.83
2019-04-06T12:19:01.060Z,58.24
2019-04-06T12:22:08.660Z,58.25
2019-04-06T12:28:06.754Z,57.45
2019-04-06T12:31:05.846Z,57.83
2019-04-06T12:33:54.395Z,56.25
2019-04-06T12:36:29.768Z,58.67
2019-04-06T12:39:11.605Z,56.01
2019-04-06T12:41:59.534Z,58.00
2019-04-06T12:44:52.939Z,57.42
2019-04-06T12:47:44.322Z,58.77
2019-04-06T12:50:34.258Z,58.52
2019-04-06T12:53:22.996Z,59.81
2019-04-06T12:56:00.515Z,59.80
2019-04-06T12:58:56.469Z,58.53
2019-04-06T13:01:44.766Z,58.60
2019-04-06T13:04:32.607Z,58.82
2019-04-06T13:07:17.589Z,57.85
2019-04-06T13:10:16.191Z,59.23
2019-04-06T13:13:08.868Z,58.12
2019-04-06T13:15:57.252Z,58.90
2019-04-06T13:18:47.282Z,56.21
2019-04-06T13:21:35.988Z,56.72
2019-04-06T13:24:11.755Z,57.68
2019-04-06T13:26:52.362Z,57.04
2019-04-06T13:29:44.991Z,60.05
2019-04-06T13:32:30.780Z,60.41
2019-04-06T13:35:16.361Z,59.45
2019-04-06T13:38:04.178Z,59.27
2019-04-06T13:40:52.769Z,60.70
2019-04-06T13:43:42.765Z,61.66
2019-04-06T13:46:48.028Z,58.06
2019-04-06T13:49:43.834Z,58.71
2019-04-06T13:52:30.013Z,59.66
2019-04-06T13:55:19.803Z,58.77
2019-04-06T13:58:07.927Z,59.23
2019-04-06T14:01:13.739Z,57.35
2019-04-06T14:03:55.651Z,58.41
2019-04-06T14:06:57.886Z,58.48
2019-04-06T14:09:40.306Z,56.76
2019-04-06T14:12:39.477Z,57.30
2019-04-06T14:15:29.613Z,57.56
2019-04-06T14:18:29.034Z,56.88
2019-04-06T14:21:27.759Z,58.41
2019-04-06T14:24:10.112Z,58.71
2019-04-06T14:27:18.843Z,58.61
2019-04-06T14:30:09.179Z,59.06
2019-04-06T14:33:06.696Z,57.92
2019-04-06T14:36:05.656Z,57.83
2019-04-06T14:38:46.723Z,56.39
2019-04-06T14:41:35.335Z,55.83
2019-04-06T14:44:31.133Z,57.14
2019-04-06T14:47:28.211Z,54.73
2019-04-06T14:50:30.004Z,55.48
2019-04-06T14:53:14.018Z,52.51
2019-04-06T14:55:53.566Z,52.80
2019-04-06T14:58:42.668Z,54.40
2019-04-06T15:01:41.509Z,54.49
2019-04-06T15:04:32.615Z,53.60
2019-04-06T15:07:12.315Z,55.24
2019-04-06T15:10:07.243Z,55.11
2019-04-06T15:12:50.514Z,55.25
2019-04-06T15:15:40.648Z,55.42
2019-04-06T15:18:36.268Z,55.44
2019-04-06T15:21:15.598Z,55.46
2019-04-06T15:24:03.839Z,56.86
2019-04-06T15:26:59.949Z,55.51
2019-04-06T15:29:36.116Z,57.88
2019-04-06T15:32:26.212Z,57.90
2019-04-06T15:35:11.215Z,58.66
2019-04-06T15:37:59.517Z,59.49
2019-04-06T15:40:52.590Z,58.28
2019-04-06T15:43:40.799Z,56.58
2019-04-06T15:46:37.626Z,55.29
2019-04-06T15:49:25.339Z,58.79
2019-04-06T15:52:18.245Z,56.20
2019-04-06T15:55:06.243Z,56.44
2019-04-06T15:57:51.535Z,56.96
2019-04-06T16:00:34.906Z,56.00
2019-04-06T16:03:19.129Z,56.65
2019-04-06T16:06:04.256Z,57.30
2019-04-06T16:08:58.370Z,56.82
2019-04-06T16:11:43.479Z,58.10
2019-04-06T16:14:33.810Z,57.15
2019-04-06T16:17:24.053Z,58.46
2019-04-06T16:20:03.054Z,57.18
2019-04-06T16:22:48.631Z,56.97
2019-04-06T16:25:37.477Z,57.53
2019-04-06T16:28:13.829Z,56.82
2019-04-06T16:31:05.313Z,57.88
2019-04-06T16:33:42.759Z,58.66
2019-04-06T16:36:23.629Z,59.20
2019-04-06T16:39:29.226Z,61.50
2019-04-06T16:42:17.700Z,59.03
2019-04-06T16:45:07.844Z,62.73
2019-04-06T16:47:56.653Z,61.41
2019-04-06T16:50:42.631Z,61.55
2019-04-06T16:53:42.039Z,67.66
2019-04-06T16:56:31.838Z,68.70
2019-04-06T16:59:25.649Z,60.87
2019-04-06T17:02:25.338Z,67.34
2019-04-06T17:05:05.888Z,70.13
2019-04-06T17:07:48.794Z,72.16
2019-04-06T17:10:45.455Z,72.23
2019-04-06T17:13:28.671Z,73.69
2019-04-06T17:16:10.435Z,74.61
2019-04-06T17:18:54.369Z,76.81
2019-04-06T17:21:42.830Z,78.26
2019-04-06T17:24:27.658Z,78.83
2019-04-06T17:27:14.264Z,79.46
2019-04-06T17:29:55.349Z,80.45
2019-04-06T17:33:18.584Z,81.36
2019-04-06T17:36:15.924Z,81.11
2019-04-06T17:39:04.427Z,81.87
2019-04-06T17:42:01.211Z,82.50
2019-04-06T17:45:07.025Z,82.70
2019-04-06T17:48:00.079Z,83.75
2019-04-06T17:51:02.574Z,84.83
2019-04-06T17:53:41.153Z,85.31
2019-04-06T17:56:30.742Z,85.92
2019-04-06T17:59:11.038Z,86.15
2019-04-06T18:02:04.873Z,87.86
2019-04-06T18:04:51.849Z,87.86
2019-04-06T18:07:40.270Z,88.73
2019-04-06T18:10:19.555Z,88.94
2019-04-06T18:13:10.174Z,89.87
2019-04-06T18:15:41.668Z,90.13
2019-04-06T18:18:12.968Z,91.04
2019-04-06T18:20:44.910Z,91.36
2019-04-06T18:23:16.455Z,91.43
2019-04-06T18:25:47.299Z,91.42
2019-04-06T18:28:18.394Z,91.45
2019-04-06T18:30:55.878Z,91.47
2019-04-06T18:33:27.089Z,91.75
2019-04-06T18:35:58.346Z,92.22
2019-04-06T18:38:33.651Z,92.23
2019-04-06T18:41:04.804Z,92.06
2019-04-06T18:43:35.578Z,92.67
2019-04-06T18:46:07.028Z,92.89
2019-04-06T18:48:38.274Z,92.86
2019-04-06T18:51:09.110Z,93.04
2019-04-06T18:53:40.130Z,93.10
2019-04-06T18:56:11.154Z,93.39
2019-04-06T18:58:42.478Z,93.72
2019-04-06T19:01:13.407Z,94.18
2019-04-06T19:03:45.114Z,94.52
2019-04-06T19:06:16.899Z,94.40
2019-04-06T19:08:48.167Z,94.77
2019-04-06T19:11:19.218Z,94.63
2019-04-06T19:13:50.056Z,94.61
2019-04-06T19:16:21.144Z,94.76
2019-04-06T19:18:52.096Z,95.01
2019-04-06T19:21:22.992Z,95.16
2019-04-06T19:23:53.876Z,95.43
2019-04-06T19:26:24.681Z,95.65
2019-04-06T19:28:55.501Z,96.16
2019-04-06T19:31:27.288Z,96.04
2019-04-06T19:33:58.823Z,95.64
2019-04-06T19:36:29.961Z,95.42
2019-04-06T19:39:01.300Z,95.05
2019-04-06T19:41:33.940Z,95.15
2019-04-06T19:44:04.807Z,95.14
2019-04-06T19:46:36.338Z,95.21
2019-04-06T19:49:07.544Z,95.35
2019-04-06T19:51:38.561Z,95.59
2019-04-06T19:54:09.439Z,95.35
2019-04-06T19:56:41.407Z,95.19
2019-04-06T19:59:13.556Z,95.71
2019-04-06T20:01:44.531Z,95.84
2019-04-06T20:04:15.414Z,96.26
2019-04-06T20:06:46.686Z,96.60
2019-04-06T20:09:17.663Z,96.97
2019-04-06T20:11:49.026Z,96.93
2019-04-06T20:14:19.891Z,96.99
2019-04-06T20:16:51.737Z,96.83
2019-04-06T20:19:22.865Z,97.08
2019-04-06T20:21:54.890Z,97.25
2019-04-06T20:24:26.264Z,97.05
2019-04-06T20:26:57.712Z,96.92
2019-04-06T20:29:29.547Z,96.96
2019-04-06T20:32:00.507Z,96.89
2019-04-06T20:34:31.551Z,96.78
2019-04-06T20:37:02.595Z,97.00
2019-04-06T20:39:34.266Z,97.13
2019-04-06T20:42:05.271Z,96.96
2019-04-06T20:44:37.095Z,96.86
2019-04-06T20:47:07.859Z,96.88
2019-04-06T20:49:38.650Z,96.58
2019-04-06T20:52:09.649Z,96.61
2019-04-06T20:54:40.410Z,96.64
2019-04-06T20:57:11.842Z,96.79
2019-04-06T20:59:42.788Z,96.44
2019-04-06T21:02:13.889Z,96.57
2019-04-06T21:04:44.629Z,95.98
2019-04-06T21:07:16.014Z,95.60
2019-04-06T21:09:47.246Z,94.78
2019-04-06T21:12:18.240Z,94.36
2019-04-06T21:14:49.057Z,94.33
2019-04-06T21:17:20.221Z,94.47
2019-04-06T21:19:51.626Z,94.96
2019-04-06T21:22:22.936Z,94.90
2019-04-06T21:24:54.011Z,94.57
2019-04-06T21:27:25.111Z,94.72
2019-04-06T21:29:56.192Z,94.55
2019-04-06T21:32:27.132Z,94.62
2019-04-06T21:34:58.698Z,94.83
2019-04-06T21:37:30.048Z,94.99
2019-04-06T21:40:01.047Z,95.25
2019-04-06T21:42:33.262Z,95.50
2019-04-06T21:45:04.992Z,95.58
2019-04-06T21:47:36.109Z,95.43
2019-04-06T21:50:07.095Z,94.88
2019-04-06T21:52:38.662Z,94.75
2019-04-06T21:55:13.711Z,93.88
2019-04-06T21:57:45.578Z,91.63
2019-04-06T22:00:41.754Z,90.08
2019-04-06T22:03:13.544Z,88.54
2019-04-06T22:05:44.633Z,88.37
2019-04-06T22:08:15.626Z,87.64
2019-04-06T22:10:47.712Z,87.44
2019-04-06T22:13:18.739Z,87.81
2019-04-06T22:15:50.687Z,88.02
2019-04-06T22:18:22.101Z,88.04
2019-04-06T22:20:52.959Z,86.78
2019-04-06T22:23:24.198Z,87.38
2019-04-06T22:25:55.339Z,87.35
2019-04-06T22:28:26.744Z,86.98
2019-04-06T22:30:57.664Z,86.37
2019-04-06T22:33:28.926Z,87.30
2019-04-06T22:35:59.714Z,87.46
2019-04-06T22:38:30.870Z,87.34
2019-04-06T22:41:01.701Z,88.42
2019-04-06T22:43:32.822Z,88.81
2019-04-06T22:46:04.397Z,88.26
2019-04-06T22:48:35.801Z,88.83
2019-04-06T22:51:06.878Z,89.37
2019-04-06T22:53:38.503Z,90.28
2019-04-06T22:56:09.987Z,90.79
2019-04-06T22:58:41.228Z,91.39
2019-04-06T23:01:13.750Z,91.08
2019-04-06T23:04:07.593Z,91.48
2019-04-06T23:06:49.761Z,90.60
2019-04-06T23:09:21.253Z,90.67
2019-04-06T23:11:52.598Z,90.83
2019-04-06T23:14:23.507Z,88.79
2019-04-06T23:16:55.083Z,87.43
2019-04-06T23:19:26.266Z,85.83
2019-04-06T23:21:57.562Z,83.78
2019-04-06T23:24:28.982Z,83.76
2019-04-06T23:27:00.007Z,83.81
2019-04-06T23:29:31.258Z,83.12
2019-04-06T23:32:02.717Z,82.87
2019-04-06T23:34:34.000Z,82.17
2019-04-06T23:37:04.944Z,80.89
2019-04-06T23:39:35.736Z,79.22
2019-04-06T23:42:06.909Z,78.87
2019-04-06T23:44:37.869Z,78.64
2019-04-06T23:47:08.886Z,79.37
2019-04-06T23:49:40.699Z,78.25
2019-04-06T23:52:12.050Z,76.38
2019-04-06T23:54:43.627Z,77.11
2019-04-06T23:57:14.366Z,78.36
2019-04-06T23:59:45.377Z,79.63
